sensor_id;sensor_type;location;lat;lon;timestamp;pressure;altitude;pressure_sealevel;temperature;humidity
17209;BME280;8720;48.488;9.202;2022-12-13T00:01:28;96330.00;;;-1.22;50.25
17209;BME280;8720;48.488;9.202;2022-12-13T00:03:58;96320.50;;;-1.30;50.32
17209;BME280;8720;48.488;9.202;2022-12-13T00:06:27;96322.25;;;-1.28;50.44
17209;BME280;8720;48.488;9.202;2022-12-13T00:08:56;96321.38;;;-1.28;50.27
17209;BME280;8720;48.488;9.202;2022-12-13T00:11:24;96323.06;;;-1.32;50.26
17209;BME280;8720;48.488;9.202;2022-12-13T00:13:53;96317.06;;;-1.34;50.56
17209;BME280;8720;48.488;9.202;2022-12-13T00:16:23;96311.88;;;-1.37;50.35
17209;BME280;8720;48.488;9.202;2022-12-13T00:18:53;96303.28;;;-1.43;50.43
17209;BME280;8720;48.488;9.202;2022-12-13T00:21:23;96317.84;;;-1.41;50.47
17209;BME280;8720;48.488;9.202;2022-12-13T00:23:51;96299.75;;;-1.51;50.22
17209;BME280;8720;48.488;9.202;2022-12-13T00:26:23;96305.78;;;-1.49;50.34
17209;BME280;8720;48.488;9.202;2022-12-13T00:28:52;96299.78;;;-1.50;50.36
17209;BME280;8720;48.488;9.202;2022-12-13T00:31:22;96300.63;;;-1.52;50.42
17209;BME280;8720;48.488;9.202;2022-12-13T00:33:51;96292.88;;;-1.58;50.36
17209;BME280;8720;48.488;9.202;2022-12-13T00:36:19;96300.56;;;-1.58;50.28
17209;BME280;8720;48.488;9.202;2022-12-13T00:38:46;96302.25;;;-1.59;50.05
17209;BME280;8720;48.488;9.202;2022-12-13T00:41:27;96299.63;;;-1.63;50.43
17209;BME280;8720;48.488;9.202;2022-12-13T00:43:56;96299.59;;;-1.66;50.38
17209;BME280;8720;48.488;9.202;2022-12-13T00:46:24;96294.44;;;-1.69;50.19
17209;BME280;8720;48.488;9.202;2022-12-13T00:48:54;96290.97;;;-1.71;50.73
17209;BME280;8720;48.488;9.202;2022-12-13T00:51:23;96287.53;;;-1.75;50.57
17209;BME280;8720;48.488;9.202;2022-12-13T00:53:51;96290.06;;;-1.78;50.36
17209;BME280;8720;48.488;9.202;2022-12-13T00:56:22;96285.75;;;-1.82;50.42
17209;BME280;8720;48.488;9.202;2022-12-13T00:58:51;96279.75;;;-1.84;50.46
17209;BME280;8720;48.488;9.202;2022-12-13T01:01:23;96279.69;;;-1.89;50.59
17209;BME280;8720;48.488;9.202;2022-12-13T01:03:52;96273.69;;;-1.91;50.60
17209;BME280;8720;48.488;9.202;2022-12-13T01:06:24;96273.66;;;-1.92;50.57
17209;BME280;8720;48.488;9.202;2022-12-13T01:08:52;96270.22;;;-1.94;50.72
17209;BME280;8720;48.488;9.202;2022-12-13T01:11:19;96267.66;;;-1.94;50.33
17209;BME280;8720;48.488;9.202;2022-12-13T01:13:46;96277.91;;;-1.96;50.53
17209;BME280;8720;48.488;9.202;2022-12-13T01:16:14;96277.00;;;-1.99;50.60
17209;BME280;8720;48.488;9.202;2022-12-13T01:18:44;96270.13;;;-2.02;50.88
17209;BME280;8720;48.488;9.202;2022-12-13T01:21:14;96267.56;;;-2.03;50.78
17209;BME280;8720;48.488;9.202;2022-12-13T01:23:42;96266.69;;;-2.04;50.99
17209;BME280;8720;48.488;9.202;2022-12-13T01:26:13;96267.50;;;-2.08;50.63
17209;BME280;8720;48.488;9.202;2022-12-13T01:28:41;96280.31;;;-2.06;50.77
17209;BME280;8720;48.488;9.202;2022-12-13T01:31:12;96278.63;;;-2.07;50.78
17209;BME280;8720;48.488;9.202;2022-12-13T01:33:41;96266.63;;;-2.10;50.80
17209;BME280;8720;48.488;9.202;2022-12-13T01:36:14;96266.63;;;-2.10;50.77
17209;BME280;8720;48.488;9.202;2022-12-13T01:38:41;96261.50;;;-2.10;50.88
17209;BME280;8720;48.488;9.202;2022-12-13T01:41:13;96260.63;;;-2.10;50.84
17209;BME280;8720;48.488;9.202;2022-12-13T01:43:56;96246.81;;;-2.24;50.73
17209;BME280;8720;48.488;9.202;2022-12-13T01:46:26;96254.63;;;-2.14;51.06
17209;BME280;8720;48.488;9.202;2022-12-13T01:49:03;96250.34;;;-2.13;50.86
17209;BME280;8720;48.488;9.202;2022-12-13T01:51:38;96240.09;;;-2.15;50.57
17209;BME280;8720;48.488;9.202;2022-12-13T01:54:11;96239.22;;;-2.17;50.70
17209;BME280;8720;48.488;9.202;2022-12-13T01:56:43;96245.16;;;-2.18;50.73
17209;BME280;8720;48.488;9.202;2022-12-13T01:59:14;96244.28;;;-2.20;50.43
17209;BME280;8720;48.488;9.202;2022-12-13T02:01:48;96231.47;;;-2.21;50.81
17209;BME280;8720;48.488;9.202;2022-12-13T02:04:22;96246.81;;;-2.23;50.75
17209;BME280;8720;48.488;9.202;2022-12-13T02:06:56;96232.25;;;-2.30;50.78
17209;BME280;8720;48.488;9.202;2022-12-13T02:09:25;96243.31;;;-2.29;50.91
17209;BME280;8720;48.488;9.202;2022-12-13T02:11:52;96238.25;;;-2.28;50.91
17209;BME280;8720;48.488;9.202;2022-12-13T02:14:20;96227.13;;;-2.27;50.52
17209;BME280;8720;48.488;9.202;2022-12-13T02:17:00;96232.25;;;-2.27;50.84
17209;BME280;8720;48.488;9.202;2022-12-13T02:20:08;96229.69;;;-2.30;50.61
17209;BME280;8720;48.488;9.202;2022-12-13T02:23:14;96225.34;;;-2.34;50.76
17209;BME280;8720;48.488;9.202;2022-12-13T02:26:06;96227.03;;;-2.36;51.11
17209;BME280;8720;48.488;9.202;2022-12-13T02:28:59;96232.97;;;-2.38;50.73
17209;BME280;8720;48.488;9.202;2022-12-13T02:31:41;96228.66;;;-2.41;50.76
17209;BME280;8720;48.488;9.202;2022-12-13T02:34:20;96226.94;;;-2.42;50.72
17209;BME280;8720;48.488;9.202;2022-12-13T02:37:00;96232.06;;;-2.43;50.90
17209;BME280;8720;48.488;9.202;2022-12-13T02:39:33;96228.59;;;-2.47;51.12
17209;BME280;8720;48.488;9.202;2022-12-13T02:42:04;96228.59;;;-2.47;50.96
17209;BME280;8720;48.488;9.202;2022-12-13T02:44:39;96227.72;;;-2.49;51.00
17209;BME280;8720;48.488;9.202;2022-12-13T02:47:15;96232.81;;;-2.50;50.98
17209;BME280;8720;48.488;9.202;2022-12-13T02:49:48;96237.91;;;-2.52;50.86
17209;BME280;8720;48.488;9.202;2022-12-13T02:52:20;96226.78;;;-2.54;50.90
17209;BME280;8720;48.488;9.202;2022-12-13T02:54:49;96231.09;;;-2.53;51.05
17209;BME280;8720;48.488;9.202;2022-12-13T02:57:32;96216.53;;;-2.54;51.04
17209;BME280;8720;48.488;9.202;2022-12-13T03:00:05;96207.97;;;-2.57;51.07
17209;BME280;8720;48.488;9.202;2022-12-13T03:02:47;96214.84;;;-2.53;51.02
17209;BME280;8720;48.488;9.202;2022-12-13T03:05:29;96211.41;;;-2.57;51.12
17209;BME280;8720;48.488;9.202;2022-12-13T03:08:23;96214.78;;;-2.58;50.99
17209;BME280;8720;48.488;9.202;2022-12-13T03:11:03;96219.06;;;-2.57;51.38
17209;BME280;8720;48.488;9.202;2022-12-13T03:13:43;96215.59;;;-2.62;50.83
17209;BME280;8720;48.488;9.202;2022-12-13T03:16:24;96211.34;;;-2.60;50.86
17209;BME280;8720;48.488;9.202;2022-12-13T03:18:59;96201.06;;;-2.63;51.07
17209;BME280;8720;48.488;9.202;2022-12-13T03:21:27;96201.06;;;-2.64;51.03
17209;BME280;8720;48.488;9.202;2022-12-13T03:23:54;96201.88;;;-2.65;51.05
17209;BME280;8720;48.488;9.202;2022-12-13T03:26:25;96200.19;;;-2.66;51.09
17209;BME280;8720;48.488;9.202;2022-12-13T03:28:53;96200.13;;;-2.68;50.87
17209;BME280;8720;48.488;9.202;2022-12-13T03:31:21;96192.44;;;-2.71;50.98
17209;BME280;8720;48.488;9.202;2022-12-13T03:33:48;96197.56;;;-2.71;50.91
17209;BME280;8720;48.488;9.202;2022-12-13T03:36:17;96195.81;;;-2.73;50.93
17209;BME280;8720;48.488;9.202;2022-12-13T03:38:46;96188.97;;;-2.76;51.04
17209;BME280;8720;48.488;9.202;2022-12-13T03:41:18;96189.78;;;-2.77;50.89
17209;BME280;8720;48.488;9.202;2022-12-13T03:43:47;96196.59;;;-2.79;50.88
17209;BME280;8720;48.488;9.202;2022-12-13T03:46:14;96183.75;;;-2.82;50.89
17209;BME280;8720;48.488;9.202;2022-12-13T03:48:41;96185.44;;;-2.84;50.96
17209;BME280;8720;48.488;9.202;2022-12-13T03:51:10;96184.56;;;-2.86;50.93
17209;BME280;8720;48.488;9.202;2022-12-13T03:53:39;96188.81;;;-2.87;50.94
17209;BME280;8720;48.488;9.202;2022-12-13T03:56:07;96186.22;;;-2.88;50.87
17209;BME280;8720;48.488;9.202;2022-12-13T03:58:35;96171.59;;;-2.98;50.82
17209;BME280;8720;48.488;9.202;2022-12-13T04:01:04;96177.66;;;-2.93;51.05
17209;BME280;8720;48.488;9.202;2022-12-13T04:03:32;96176.78;;;-2.92;51.01
17209;BME280;8720;48.488;9.202;2022-12-13T04:05:59;96175.91;;;-2.94;50.86
17209;BME280;8720;48.488;9.202;2022-12-13T04:08:26;96177.59;;;-2.96;51.23
17209;BME280;8720;48.488;9.202;2022-12-13T04:10:55;96178.44;;;-2.97;50.86
17209;BME280;8720;48.488;9.202;2022-12-13T04:13:22;96178.44;;;-2.97;51.13
17209;BME280;8720;48.488;9.202;2022-12-13T04:15:57;96182.63;;;-3.01;50.65
17209;BME280;8720;48.488;9.202;2022-12-13T04:18:24;96181.81;;;-3.00;51.07
17209;BME280;8720;48.488;9.202;2022-12-13T04:20:52;96164.59;;;-3.11;51.35
17209;BME280;8720;48.488;9.202;2022-12-13T04:23:19;96184.31;;;-3.03;50.95
17209;BME280;8720;48.488;9.202;2022-12-13T04:25:46;96186.03;;;-3.03;51.01
17209;BME280;8720;48.488;9.202;2022-12-13T04:28:15;96193.69;;;-3.05;51.00
17209;BME280;8720;48.488;9.202;2022-12-13T04:30:42;96191.06;;;-3.06;51.15
17209;BME280;8720;48.488;9.202;2022-12-13T04:33:10;96192.75;;;-3.08;50.74
17209;BME280;8720;48.488;9.202;2022-12-13T04:35:37;96174.75;;;-3.14;51.14
17209;BME280;8720;48.488;9.202;2022-12-13T04:38:04;96183.28;;;-3.14;50.89
17209;BME280;8720;48.488;9.202;2022-12-13T04:40:31;96180.72;;;-3.15;50.99
17209;BME280;8720;48.488;9.202;2022-12-13T04:42:58;96181.56;;;-3.16;51.09
17209;BME280;8720;48.488;9.202;2022-12-13T04:45:27;96187.50;;;-3.17;50.98
17209;BME280;8720;48.488;9.202;2022-12-13T04:47:54;96178.13;;;-3.18;51.03
17209;BME280;8720;48.488;9.202;2022-12-13T04:50:21;96177.25;;;-3.20;50.63
17209;BME280;8720;48.488;9.202;2022-12-13T04:52:49;96176.38;;;-3.22;51.02
17209;BME280;8720;48.488;9.202;2022-12-13T04:55:16;96168.66;;;-3.24;51.11
17209;BME280;8720;48.488;9.202;2022-12-13T04:57:43;96175.41;;;-3.29;51.04
17209;BME280;8720;48.488;9.202;2022-12-13T05:00:12;96165.97;;;-3.31;51.06
17209;BME280;8720;48.488;9.202;2022-12-13T05:02:41;96166.84;;;-3.32;50.84
17209;BME280;8720;48.488;9.202;2022-12-13T05:05:09;96161.72;;;-3.32;50.94
17209;BME280;8720;48.488;9.202;2022-12-13T05:07:37;96165.97;;;-3.33;51.02
17209;BME280;8720;48.488;9.202;2022-12-13T05:10:06;96163.41;;;-3.33;51.01
17209;BME280;8720;48.488;9.202;2022-12-13T05:12:33;96163.38;;;-3.34;50.83
17209;BME280;8720;48.488;9.202;2022-12-13T05:15:00;96160.81;;;-3.36;51.14
17209;BME280;8720;48.488;9.202;2022-12-13T05:17:28;96153.09;;;-3.37;50.95
17209;BME280;8720;48.488;9.202;2022-12-13T05:19:56;96147.84;;;-3.48;50.74
17209;BME280;8720;48.488;9.202;2022-12-13T05:22:24;96164.19;;;-3.38;50.82
17209;BME280;8720;48.488;9.202;2022-12-13T05:24:51;96155.63;;;-3.40;51.04
17209;BME280;8720;48.488;9.202;2022-12-13T05:27:18;96159.03;;;-3.41;50.86
17209;BME280;8720;48.488;9.202;2022-12-13T05:29:45;96153.06;;;-3.42;51.07
17209;BME280;8720;48.488;9.202;2022-12-13T05:32:12;96154.72;;;-3.45;51.13
17209;BME280;8720;48.488;9.202;2022-12-13T05:34:40;96156.38;;;-3.47;51.19
17209;BME280;8720;48.488;9.202;2022-12-13T05:37:08;96162.38;;;-3.45;51.20
17209;BME280;8720;48.488;9.202;2022-12-13T05:39:35;96149.59;;;-3.45;51.18
17209;BME280;8720;48.488;9.202;2022-12-13T05:42:03;96158.09;;;-3.45;51.25
17209;BME280;8720;48.488;9.202;2022-12-13T05:44:31;96160.72;;;-3.43;51.21
17209;BME280;8720;48.488;9.202;2022-12-13T05:46:59;96158.97;;;-3.43;51.11
17209;BME280;8720;48.488;9.202;2022-12-13T05:49:26;96155.59;;;-3.43;51.02
17209;BME280;8720;48.488;9.202;2022-12-13T05:51:53;96140.22;;;-3.45;51.03
17209;BME280;8720;48.488;9.202;2022-12-13T05:54:22;96154.72;;;-3.45;51.31
17209;BME280;8720;48.488;9.202;2022-12-13T05:56:49;96149.53;;;-3.47;51.10
17209;BME280;8720;48.488;9.202;2022-12-13T05:59:17;96145.28;;;-3.48;51.05
17209;BME280;8720;48.488;9.202;2022-12-13T06:01:44;96150.38;;;-3.49;51.00
17209;BME280;8720;48.488;9.202;2022-12-13T06:04:11;96147.81;;;-3.49;51.42
17209;BME280;8720;48.488;9.202;2022-12-13T06:06:38;96148.66;;;-3.49;51.04
17209;BME280;8720;48.488;9.202;2022-12-13T06:09:05;96142.66;;;-3.51;51.24
17209;BME280;8720;48.488;9.202;2022-12-13T06:11:34;96135.84;;;-3.52;51.24
17209;BME280;8720;48.488;9.202;2022-12-13T06:14:01;96140.09;;;-3.52;51.24
17209;BME280;8720;48.488;9.202;2022-12-13T06:16:28;96141.75;;;-3.54;51.29
17209;BME280;8720;48.488;9.202;2022-12-13T06:18:56;96140.94;;;-3.55;51.11
17209;BME280;8720;48.488;9.202;2022-12-13T06:21:23;96146.03;;;-3.55;51.13
17209;BME280;8720;48.488;9.202;2022-12-13T06:23:50;96136.63;;;-3.56;51.15
17209;BME280;8720;48.488;9.202;2022-12-13T06:26:18;96139.22;;;-3.54;51.07
17209;BME280;8720;48.488;9.202;2022-12-13T06:28:46;96141.75;;;-3.54;51.27
17209;BME280;8720;48.488;9.202;2022-12-13T06:31:14;96145.16;;;-3.57;51.17
17209;BME280;8720;48.488;9.202;2022-12-13T06:33:41;96147.72;;;-3.55;51.13
17209;BME280;8720;48.488;9.202;2022-12-13T06:36:09;96154.53;;;-3.54;51.23
17209;BME280;8720;48.488;9.202;2022-12-13T06:38:36;96143.50;;;-3.53;51.11
17209;BME280;8720;48.488;9.202;2022-12-13T06:41:12;96138.38;;;-3.55;51.21
17209;BME280;8720;48.488;9.202;2022-12-13T06:43:41;96134.81;;;-3.64;51.17
17209;BME280;8720;48.488;9.202;2022-12-13T06:46:10;96154.59;;;-3.53;51.22
17209;BME280;8720;48.488;9.202;2022-12-13T06:48:37;96155.44;;;-3.52;51.27
17209;BME280;8720;48.488;9.202;2022-12-13T06:51:07;96157.97;;;-3.52;50.88
17209;BME280;8720;48.488;9.202;2022-12-13T06:53:38;96152.84;;;-3.54;51.19
17209;BME280;8720;48.488;9.202;2022-12-13T06:56:07;96150.31;;;-3.54;51.08
17209;BME280;8720;48.488;9.202;2022-12-13T06:58:35;96152.84;;;-3.54;51.13
17209;BME280;8720;48.488;9.202;2022-12-13T07:01:06;96154.59;;;-3.53;51.30
17209;BME280;8720;48.488;9.202;2022-12-13T07:03:36;96156.94;;;-3.10;51.45
17209;BME280;8720;48.488;9.202;2022-12-13T07:06:09;96155.22;;;-3.11;51.16
17209;BME280;8720;48.488;9.202;2022-12-13T07:08:38;96157.72;;;-3.15;51.14
17209;BME280;8720;48.488;9.202;2022-12-13T07:11:06;96153.41;;;-3.18;51.09
17209;BME280;8720;48.488;9.202;2022-12-13T07:13:33;96165.31;;;-3.20;51.20
17209;BME280;8720;48.488;9.202;2022-12-13T07:16:00;96168.75;;;-3.18;51.10
17209;BME280;8720;48.488;9.202;2022-12-13T07:18:27;96173.03;;;-3.18;51.04
17209;BME280;8720;48.488;9.202;2022-12-13T07:20:56;96176.47;;;-3.16;51.07
17209;BME280;8720;48.488;9.202;2022-12-13T07:23:23;96175.59;;;-3.15;50.92
17209;BME280;8720;48.488;9.202;2022-12-13T07:25:51;96167.91;;;-3.18;51.02
17209;BME280;8720;48.488;9.202;2022-12-13T07:28:20;96190.16;;;-3.11;50.92
17209;BME280;8720;48.488;9.202;2022-12-13T07:30:48;96182.47;;;-3.13;51.21
17209;BME280;8720;48.488;9.202;2022-12-13T07:33:15;96189.31;;;-3.10;51.12
17209;BME280;8720;48.488;9.202;2022-12-13T07:35:44;96192.81;;;-3.07;51.09
17209;BME280;8720;48.488;9.202;2022-12-13T07:38:12;96194.53;;;-3.04;51.08
17209;BME280;8720;48.488;9.202;2022-12-13T07:40:41;96197.94;;;-3.04;50.98
17209;BME280;8720;48.488;9.202;2022-12-13T07:43:09;96203.94;;;-3.03;50.98
17209;BME280;8720;48.488;9.202;2022-12-13T07:45:36;96197.97;;;-3.01;51.13
17209;BME280;8720;48.488;9.202;2022-12-13T07:48:05;96197.16;;;-2.98;51.02
17209;BME280;8720;48.488;9.202;2022-12-13T07:50:33;96197.25;;;-2.94;51.30
17209;BME280;8720;48.488;9.202;2022-12-13T07:53:04;96196.38;;;-2.93;51.14
17209;BME280;8720;48.488;9.202;2022-12-13T07:55:34;96195.69;;;-2.84;51.24
17209;BME280;8720;48.488;9.202;2022-12-13T07:58:06;96189.69;;;-2.85;51.24
17209;BME280;8720;48.488;9.202;2022-12-13T08:00:37;96194.09;;;-2.74;51.15
17209;BME280;8720;48.488;9.202;2022-12-13T08:03:05;96194.19;;;-2.68;51.26
17209;BME280;8720;48.488;9.202;2022-12-13T08:05:34;96192.53;;;-2.63;51.17
17209;BME280;8720;48.488;9.202;2022-12-13T08:08:04;96189.19;;;-2.58;51.24
17209;BME280;8720;48.488;9.202;2022-12-13T08:10:33;96193.56;;;-2.51;51.38
17209;BME280;8720;48.488;9.202;2022-12-13T08:13:01;96196.16;;;-2.45;51.42
17209;BME280;8720;48.488;9.202;2022-12-13T08:15:32;96199.66;;;-2.40;51.33
17209;BME280;8720;48.488;9.202;2022-12-13T08:17:59;96199.69;;;-2.37;51.14
17209;BME280;8720;48.488;9.202;2022-12-13T08:20:28;96202.28;;;-2.35;51.37
17209;BME280;8720;48.488;9.202;2022-12-13T08:22:57;96198.09;;;-2.29;51.46
17209;BME280;8720;48.488;9.202;2022-12-13T08:25:26;96199.84;;;-2.23;51.36
17209;BME280;8720;48.488;9.202;2022-12-13T08:27:55;96208.47;;;-2.17;51.46
17209;BME280;8720;48.488;9.202;2022-12-13T08:30:23;96205.13;;;-2.10;51.48
17209;BME280;8720;48.488;9.202;2022-12-13T08:32:50;96206.91;;;-2.06;51.41
17209;BME280;8720;48.488;9.202;2022-12-13T08:35:17;96204.41;;;-1.97;51.23
17209;BME280;8720;48.488;9.202;2022-12-13T08:37:44;96204.50;;;-1.91;51.47
17209;BME280;8720;48.488;9.202;2022-12-13T08:40:12;96205.41;;;-1.86;51.57
17209;BME280;8720;48.488;9.202;2022-12-13T08:42:39;96204.63;;;-1.80;51.46
17209;BME280;8720;48.488;9.202;2022-12-13T08:45:10;96214.94;;;-1.72;51.17
17209;BME280;8720;48.488;9.202;2022-12-13T08:47:37;96212.44;;;-1.66;51.49
17209;BME280;8720;48.488;9.202;2022-12-13T08:50:06;96210.78;;;-1.61;51.23
17209;BME280;8720;48.488;9.202;2022-12-13T08:52:34;96208.25;;;-1.57;51.42
17209;BME280;8720;48.488;9.202;2022-12-13T08:55:02;96203.19;;;-1.52;51.53
17209;BME280;8720;48.488;9.202;2022-12-13T08:57:29;96202.38;;;-1.47;51.52
17209;BME280;8720;48.488;9.202;2022-12-13T08:59:56;96196.44;;;-1.41;51.58
17209;BME280;8720;48.488;9.202;2022-12-13T09:02:25;96207.59;;;-1.36;51.53
17209;BME280;8720;48.488;9.202;2022-12-13T09:04:52;96197.38;;;-1.33;51.53
17209;BME280;8720;48.488;9.202;2022-12-13T09:07:20;96199.13;;;-1.28;51.35
17209;BME280;8720;48.488;9.202;2022-12-13T09:09:47;96198.31;;;-1.24;51.61
17209;BME280;8720;48.488;9.202;2022-12-13T09:12:14;96199.19;;;-1.17;51.48
17209;BME280;8720;48.488;9.202;2022-12-13T09:14:42;96190.72;;;-1.10;51.25
17209;BME280;8720;48.488;9.202;2022-12-13T09:17:09;96189.88;;;-1.03;51.46
17209;BME280;8720;48.488;9.202;2022-12-13T09:19:38;96189.06;;;-0.96;51.72
17209;BME280;8720;48.488;9.202;2022-12-13T09:22:05;96188.28;;;-0.89;51.33
17209;BME280;8720;48.488;9.202;2022-12-13T09:24:33;96185.75;;;-0.81;51.61
17209;BME280;8720;48.488;9.202;2022-12-13T09:27:00;96182.38;;;-0.76;51.28
17209;BME280;8720;48.488;9.202;2022-12-13T09:29:27;96192.69;;;-0.70;51.66
17209;BME280;8720;48.488;9.202;2022-12-13T09:31:54;96184.97;;;-0.65;51.51
17209;BME280;8720;48.488;9.202;2022-12-13T09:34:22;96192.72;;;-0.59;51.67
17209;BME280;8720;48.488;9.202;2022-12-13T09:36:51;96182.44;;;-0.58;51.58
17209;BME280;8720;48.488;9.202;2022-12-13T09:39:18;96194.50;;;-0.49;51.59
17209;BME280;8720;48.488;9.202;2022-12-13T09:41:49;96187.69;;;-0.43;51.41
17209;BME280;8720;48.488;9.202;2022-12-13T09:44:22;96190.25;;;-0.40;51.67
17209;BME280;8720;48.488;9.202;2022-12-13T09:46:52;96197.13;;;-0.33;51.69
17209;BME280;8720;48.488;9.202;2022-12-13T09:49:32;96197.19;;;-0.25;51.58
17209;BME280;8720;48.488;9.202;2022-12-13T09:52:12;96188.63;;;-0.23;51.69
17209;BME280;8720;48.488;9.202;2022-12-13T09:54:40;96192.94;;;-0.13;51.66
17209;BME280;8720;48.488;9.202;2022-12-13T09:57:16;96190.41;;;-0.08;51.62
17209;BME280;8720;48.488;9.202;2022-12-13T09:59:44;96183.59;;;0.00;51.62
17209;BME280;8720;48.488;9.202;2022-12-13T10:02:17;96174.16;;;0.04;51.68
17209;BME280;8720;48.488;9.202;2022-12-13T10:04:47;96179.31;;;0.14;51.72
17209;BME280;8720;48.488;9.202;2022-12-13T10:07:19;96184.50;;;0.25;51.74
17209;BME280;8720;48.488;9.202;2022-12-13T10:09:48;96178.50;;;0.30;51.78
17209;BME280;8720;48.488;9.202;2022-12-13T10:12:19;96187.94;;;0.36;51.85
17209;BME280;8720;48.488;9.202;2022-12-13T10:14:50;96169.09;;;0.44;51.79
17209;BME280;8720;48.488;9.202;2022-12-13T10:17:26;96172.53;;;0.54;51.72
17209;BME280;8720;48.488;9.202;2022-12-13T10:19:57;96182.81;;;0.63;51.78
17209;BME280;8720;48.488;9.202;2022-12-13T10:22:26;96171.66;;;0.71;51.92
17209;BME280;8720;48.488;9.202;2022-12-13T10:24:55;96177.69;;;0.81;51.42
17209;BME280;8720;48.488;9.202;2022-12-13T10:27:34;96173.38;;;0.89;51.43
17209;BME280;8720;48.488;9.202;2022-12-13T10:30:06;96169.94;;;0.98;51.64
17209;BME280;8720;48.488;9.202;2022-12-13T10:32:47;96160.50;;;1.06;51.58
17209;BME280;8720;48.488;9.202;2022-12-13T10:35:23;96159.63;;;1.19;51.76
17209;BME280;8720;48.488;9.202;2022-12-13T10:37:54;96161.34;;;1.27;51.76
17209;BME280;8720;48.488;9.202;2022-12-13T10:40:25;96159.59;;;1.37;51.62
17209;BME280;8720;48.488;9.202;2022-12-13T10:43:11;96156.97;;;1.47;51.51
17209;BME280;8720;48.488;9.202;2022-12-13T10:45:39;96152.66;;;1.54;51.67
17209;BME280;8720;48.488;9.202;2022-12-13T10:48:18;96146.63;;;1.61;51.66
17209;BME280;8720;48.488;9.202;2022-12-13T10:50:58;96139.72;;;1.69;51.61
17209;BME280;8720;48.488;9.202;2022-12-13T10:53:31;96137.09;;;1.78;51.87
17209;BME280;8720;48.488;9.202;2022-12-13T10:56:01;96144.75;;;1.93;51.73
17209;BME280;8720;48.488;9.202;2022-12-13T10:58:38;96137.00;;;2.02;51.53
17209;BME280;8720;48.488;9.202;2022-12-13T11:01:19;96124.09;;;2.02;51.54
17209;BME280;8720;48.488;9.202;2022-12-13T11:04:27;96130.03;;;2.15;51.66
17209;BME280;8720;48.488;9.202;2022-12-13T11:06:58;96128.25;;;2.24;51.89
17209;BME280;8720;48.488;9.202;2022-12-13T11:09:31;96127.34;;;2.31;51.67
17209;BME280;8720;48.488;9.202;2022-12-13T11:12:02;96118.69;;;2.43;51.68
17209;BME280;8720;48.488;9.202;2022-12-13T11:14:33;96120.31;;;2.51;51.80
17209;BME280;8720;48.488;9.202;2022-12-13T11:17:13;96112.53;;;2.57;51.70
17209;BME280;8720;48.488;9.202;2022-12-13T11:19:46;96103.88;;;2.63;51.56
17209;BME280;8720;48.488;9.202;2022-12-13T11:22:20;96102.03;;;2.77;51.04
17209;BME280;8720;48.488;9.202;2022-12-13T11:24:57;96114.03;;;2.84;51.10
17209;BME280;8720;48.488;9.202;2022-12-13T11:27:53;96116.53;;;2.92;51.33
17209;BME280;8720;48.488;9.202;2022-12-13T11:30:33;96101.03;;;2.95;51.15
17209;BME280;8720;48.488;9.202;2022-12-13T11:33:19;96092.34;;;3.00;51.06
17209;BME280;8720;48.488;9.202;2022-12-13T11:36:05;96094.84;;;3.09;51.07
17209;BME280;8720;48.488;9.202;2022-12-13T11:39:02;96092.16;;;3.18;51.35
17209;BME280;8720;48.488;9.202;2022-12-13T11:41:40;96082.63;;;3.23;51.41
17209;BME280;8720;48.488;9.202;2022-12-13T11:44:15;96080.84;;;3.31;51.16
17209;BME280;8720;48.488;9.202;2022-12-13T11:46:51;96075.63;;;3.33;50.99
17209;BME280;8720;48.488;9.202;2022-12-13T11:49:37;96084.91;;;3.50;51.15
17209;BME280;8720;48.488;9.202;2022-12-13T11:52:14;96081.38;;;3.57;51.08
17209;BME280;8720;48.488;9.202;2022-12-13T11:54:50;96078.75;;;3.60;50.71
17209;BME280;8720;48.488;9.202;2022-12-13T11:57:38;96076.16;;;3.59;50.72
17209;BME280;8720;48.488;9.202;2022-12-13T12:00:30;96082.22;;;3.58;50.72
17209;BME280;8720;48.488;9.202;2022-12-13T12:03:17;96076.25;;;3.54;51.01
17209;BME280;8720;48.488;9.202;2022-12-13T12:05:52;96087.31;;;3.65;51.09
17209;BME280;8720;48.488;9.202;2022-12-13T12:08:31;96084.69;;;3.70;50.81
17209;BME280;8720;48.488;9.202;2022-12-13T12:11:09;96079.47;;;3.72;50.77
17209;BME280;8720;48.488;9.202;2022-12-13T12:13:46;96083.78;;;3.74;50.95
17209;BME280;8720;48.488;9.202;2022-12-13T12:16:27;96078.50;;;3.82;51.03
17209;BME280;8720;48.488;9.202;2022-12-13T12:18:57;96080.13;;;3.87;50.77
17209;BME280;8720;48.488;9.202;2022-12-13T12:21:35;96067.16;;;3.90;50.83
17209;BME280;8720;48.488;9.202;2022-12-13T12:24:22;96066.25;;;3.93;50.70
17209;BME280;8720;48.488;9.202;2022-12-13T12:27:09;96067.91;;;3.98;50.62
17209;BME280;8720;48.488;9.202;2022-12-13T12:30:08;96064.41;;;4.02;50.87
17209;BME280;8720;48.488;9.202;2022-12-13T12:32:48;96066.03;;;4.08;50.58
17209;BME280;8720;48.488;9.202;2022-12-13T12:35:59;96068.56;;;4.12;50.80
17209;BME280;8720;48.488;9.202;2022-12-13T12:39:06;96072.00;;;4.14;50.77
17209;BME280;8720;48.488;9.202;2022-12-13T12:42:01;96066.72;;;4.20;50.69
17209;BME280;8720;48.488;9.202;2022-12-13T12:44:44;96064.84;;;4.28;50.76
17209;BME280;8720;48.488;9.202;2022-12-13T12:47:31;96041.59;;;4.27;50.32
17209;BME280;8720;48.488;9.202;2022-12-13T12:50:34;96058.66;;;4.38;50.42
17209;BME280;8720;48.488;9.202;2022-12-13T12:53:28;96048.31;;;4.38;50.01
17209;BME280;8720;48.488;9.202;2022-12-13T12:56:15;96050.78;;;4.46;50.10
17209;BME280;8720;48.488;9.202;2022-12-13T12:58:55;96042.09;;;4.50;50.08
17209;BME280;8720;48.488;9.202;2022-12-13T13:01:48;96032.53;;;4.53;49.89
17209;BME280;8720;48.488;9.202;2022-12-13T13:04:25;96038.50;;;4.58;49.85
17209;BME280;8720;48.488;9.202;2022-12-13T13:06:59;96042.72;;;4.64;49.91
17209;BME280;8720;48.488;9.202;2022-12-13T13:09:30;96045.19;;;4.72;49.67
17209;BME280;8720;48.488;9.202;2022-12-13T13:12:02;96044.25;;;4.76;49.44
17209;BME280;8720;48.488;9.202;2022-12-13T13:14:34;96048.53;;;4.78;49.36
17209;BME280;8720;48.488;9.202;2022-12-13T13:17:46;96043.34;;;4.77;49.74
17209;BME280;8720;48.488;9.202;2022-12-13T13:20:23;96045.19;;;4.72;49.41
17209;BME280;8720;48.488;9.202;2022-12-13T13:22:52;96045.16;;;4.73;49.77
17209;BME280;8720;48.488;9.202;2022-12-13T13:25:30;96039.94;;;4.76;49.47
17209;BME280;8720;48.488;9.202;2022-12-13T13:28:05;96032.16;;;4.75;49.40
17209;BME280;8720;48.488;9.202;2022-12-13T13:31:02;96026.09;;;4.77;49.37
17209;BME280;8720;48.488;9.202;2022-12-13T13:33:44;96030.44;;;4.75;49.03
17209;BME280;8720;48.488;9.202;2022-12-13T13:36:47;96019.34;;;4.67;49.19
17209;BME280;8720;48.488;9.202;2022-12-13T13:39:36;96029.66;;;4.70;49.28
17209;BME280;8720;48.488;9.202;2022-12-13T13:42:23;96020.25;;;4.66;49.22
17209;BME280;8720;48.488;9.202;2022-12-13T13:45:17;96027.09;;;4.70;49.16